Time;durP1;ratioP1;P1;durP2;ratioP2;P2;SDS_P1;SDS_P2;PMS_P1;PMS_P2;Temp;Humidity;BMP_temperature;BMP_pressure;BME280_temperature;BME280_humidity;BME280_pressure;Samples;Min_cycle;Max_cycle;Signal;HPM_P1;HPM_P2
2022/04/28 00:00:59;;;;;;;58.58;55.70;;;;;;;14.47;100.00;101034.69;5004927;28;20070;-92
2022/04/28 00:03:26;;;;;;;57.45;54.55;;;;;;;14.45;100.00;101023.38;5006257;28;20037;-91
2022/04/28 00:05:53;;;;;;;53.45;50.95;;;;;;;14.58;100.00;101020.59;5005505;28;20053;-92
2022/04/28 00:08:20;;;;;;;53.33;50.70;;;;;;;14.28;100.00;101022.34;5008711;28;20098;-93
2022/04/28 00:10:47;;;;;;;36.42;34.72;;;;;;;14.25;100.00;101028.97;5008697;28;20038;-92
2022/04/28 00:13:14;;;;;;;39.00;37.17;;;;;;;13.97;100.00;101024.13;5006161;28;20034;-93
2022/04/28 00:15:42;;;;;;;36.38;34.67;;;;;;;14.01;100.00;101024.47;5007272;28;20030;-91
2022/04/28 00:18:10;;;;;;;40.17;38.08;;;;;;;14.04;100.00;101026.72;5005749;28;20035;-92
2022/04/28 00:20:37;;;;;;;37.08;35.30;;;;;;;13.87;100.00;101016.63;5010238;28;20030;-92
2022/04/28 00:23:04;;;;;;;38.28;36.45;;;;;;;13.93;100.00;101017.59;5011630;28;20044;-92
2022/04/28 00:25:30;;;;;;;42.63;40.58;;;;;;;14.05;100.00;101013.16;5003817;28;20065;-90
2022/04/28 00:27:57;;;;;;;35.10;33.33;;;;;;;14.14;100.00;101019.03;5006109;28;20041;-93
2022/04/28 00:30:24;;;;;;;34.03;32.20;;;;;;;14.10;100.00;101017.81;5006167;28;20055;-90
2022/04/28 00:32:54;;;;;;;33.72;31.98;;;;;;;14.10;100.00;101018.66;5008897;28;20070;-92
2022/04/28 00:35:22;;;;;;;66.65;63.35;;;;;;;13.61;100.00;101025.66;5003155;28;20027;-93
2022/04/28 00:37:49;;;;;;;85.32;81.45;;;;;;;13.35;100.00;101016.03;5005893;28;20037;-92
2022/04/28 00:40:15;;;;;;;102.28;97.70;;;;;;;13.19;100.00;101012.03;5005282;28;20054;-92
2022/04/28 00:42:42;;;;;;;94.00;89.50;;;;;;;13.16;100.00;101008.94;5010486;28;20041;-91
2022/04/28 00:45:10;;;;;;;82.38;78.43;;;;;;;13.11;100.00;101009.59;5011243;28;20061;-92
2022/04/28 00:50:41;;;;;;;90.13;85.97;;;;;;;13.15;100.00;101002.00;5009293;28;20082;-92
2022/04/28 00:53:12;;;;;;;84.90;80.95;;;;;;;12.86;100.00;100980.25;5005074;28;20026;-92
2022/04/28 00:55:39;;;;;;;57.90;54.83;;;;;;;13.12;100.00;100968.56;5003545;28;20035;-92
2022/04/28 00:58:11;;;;;;;62.05;59.05;;;;;;;13.10;100.00;100949.31;5011901;28;20035;-92
2022/04/28 01:00:38;;;;;;;43.47;40.90;;;;;;;13.07;100.00;100965.72;5012122;28;20046;-92
2022/04/28 01:03:05;;;;;;;35.00;32.97;;;;;;;13.18;100.00;100996.22;5014151;28;20062;-92
2022/04/28 01:05:35;;;;;;;33.47;31.98;;;;;;;13.58;100.00;101020.75;5009390;28;20058;-92
2022/04/28 01:08:02;;;;;;;34.50;32.50;;;;;;;13.40;100.00;101042.88;5008240;28;20030;-93
2022/04/28 01:10:29;;;;;;;32.35;30.95;;;;;;;13.07;100.00;101057.22;5003057;28;20098;-92
2022/04/28 01:12:58;;;;;;;41.08;39.00;;;;;;;13.11;100.00;101076.28;5008510;28;20030;-92
2022/04/28 01:15:31;;;;;;;42.65;40.45;;;;;;;13.21;100.00;101087.28;5001054;28;20043;-94
2022/04/28 01:18:02;;;;;;;44.50;42.30;;;;;;;13.21;100.00;101089.16;5008004;28;20064;-96
2022/04/28 01:20:31;;;;;;;40.58;38.67;;;;;;;13.02;100.00;101085.56;5007718;28;20073;-96
2022/04/28 01:22:59;;;;;;;39.90;37.97;;;;;;;13.18;100.00;101081.56;5013953;28;20110;-93
2022/04/28 01:25:26;;;;;;;41.30;39.17;;;;;;;13.19;100.00;101092.03;5002171;28;20041;-93
2022/04/28 01:27:53;;;;;;;39.85;37.95;;;;;;;13.39;100.00;101099.13;5006304;28;20040;-92
2022/04/28 01:30:20;;;;;;;39.75;37.75;;;;;;;13.27;100.00;101109.66;5005570;28;20094;-90
2022/04/28 01:32:47;;;;;;;37.47;35.63;;;;;;;13.56;100.00;101112.78;5006118;28;20045;-91
2022/04/28 01:35:14;;;;;;;41.67;39.78;;;;;;;13.56;100.00;101105.59;5001088;28;20183;-93
2022/04/28 01:37:41;;;;;;;36.78;34.97;;;;;;;13.70;100.00;101104.44;5009609;28;20035;-92
2022/04/28 01:40:11;;;;;;;38.90;37.00;;;;;;;13.48;100.00;101087.97;5007637;28;20034;-92
2022/04/28 01:42:39;;;;;;;37.90;36.08;;;;;;;13.55;100.00;101089.78;5008562;28;20030;-92
2022/04/28 01:45:07;;;;;;;34.67;32.65;;;;;;;13.07;100.00;101094.56;5008214;28;20098;-92
2022/04/28 01:47:34;;;;;;;37.47;35.65;;;;;;;12.98;100.00;101101.16;5013830;28;20038;-92
2022/04/28 01:50:11;;;;;;;39.00;36.97;;;;;;;12.73;100.00;101102.91;5007743;28;20026;-92
2022/04/28 01:55:26;;;;;;;49.72;47.22;;;;;;;12.88;100.00;101121.28;5012823;28;20115;-92
2022/04/28 01:57:53;;;;;;;46.00;43.55;;;;;;;13.08;100.00;101119.38;5016321;28;20114;-93
2022/04/28 02:02:53;;;;;;;48.97;46.15;;;;;;;12.75;100.00;101135.50;4974625;28;20050;-96
2022/04/28 02:05:25;;;;;;;49.80;46.90;;;;;;;13.02;100.00;101138.88;4968784;28;20087;-94
2022/04/28 02:07:54;;;;;;;50.53;47.70;;;;;;;12.80;100.00;101133.03;4966410;28;20047;-94
2022/04/28 02:10:21;;;;;;;46.33;43.85;;;;;;;12.76;100.00;101139.78;4968182;28;20055;-94
2022/04/28 02:12:50;;;;;;;52.10;49.20;;;;;;;12.95;100.00;101143.41;4974680;28;20060;-96
2022/04/28 02:15:17;;;;;;;52.88;49.78;;;;;;;12.95;100.00;101138.06;4969892;28;20028;-96
2022/04/28 02:17:44;;;;;;;56.47;53.13;;;;;;;13.02;100.00;101146.88;4972068;28;20027;-94
2022/04/28 02:20:12;;;;;;;48.25;45.55;;;;;;;12.82;100.00;101144.28;4970817;28;20137;-95
2022/04/28 02:22:39;;;;;;;46.35;43.55;;;;;;;13.07;100.00;101147.06;4977703;28;20049;-92
2022/04/28 02:25:07;;;;;;;39.70;37.22;;;;;;;13.05;100.00;101157.13;4968611;28;20064;-94
2022/04/28 02:27:35;;;;;;;43.00;40.50;;;;;;;12.79;100.00;101174.84;4970178;28;20038;-96
2022/04/28 02:30:13;;;;;;;56.03;53.00;;;;;;;13.10;100.00;101175.16;4969982;28;20051;-95
2022/04/28 02:35:26;;;;;;;62.25;58.55;;;;;;;13.04;100.00;101174.13;4966599;28;20035;-95
2022/04/28 02:37:56;;;;;;;54.33;51.25;;;;;;;13.00;100.00;101173.75;4971186;28;20027;-93
2022/04/28 02:40:24;;;;;;;67.47;63.05;;;;;;;12.75;100.00;101170.97;4971521;28;20043;-94
2022/04/28 02:42:52;;;;;;;53.22;49.67;;;;;;;12.78;100.00;101154.56;4967476;28;20028;-95
2022/04/28 02:45:23;;;;;;;68.00;64.22;;;;;;;12.82;100.00;101149.63;4971147;28;20063;-95
2022/04/28 02:47:54;;;;;;;60.13;56.58;;;;;;;12.87;100.00;101149.81;4970963;28;20132;-94
2022/04/28 02:50:22;;;;;;;53.33;50.03;;;;;;;12.80;100.00;101157.03;4974125;28;20091;-95
2022/04/28 02:52:53;;;;;;;46.30;43.30;;;;;;;12.75;100.00;101159.47;4973075;28;20071;-94
2022/04/28 02:55:22;;;;;;;45.77;42.73;;;;;;;13.16;100.00;101142.28;4969180;28;20043;-93
2022/04/28 02:57:49;;;;;;;55.10;51.75;;;;;;;13.04;100.00;101153.66;4970835;28;20061;-96
2022/04/28 03:00:17;;;;;;;48.05;44.92;;;;;;;13.11;100.00;101163.47;4976511;28;20039;-95
2022/04/28 03:02:47;;;;;;;46.70;43.20;;;;;;;13.05;100.00;101154.47;4969301;28;20035;-93
2022/04/28 03:05:14;;;;;;;50.17;47.05;;;;;;;12.85;100.00;101159.84;4967253;28;20066;-94
2022/04/28 03:10:53;;;;;;;48.72;45.72;;;;;;;13.83;100.00;101156.09;4965881;28;20067;-94
2022/04/28 03:13:23;;;;;;;54.17;51.13;;;;;;;13.96;100.00;101148.00;4967503;28;20099;-94
2022/04/28 03:15:51;;;;;;;45.30;42.50;;;;;;;13.52;100.00;101152.41;4970639;28;20083;-94
2022/04/28 03:18:22;;;;;;;34.53;32.25;;;;;;;14.02;100.00;101151.66;4968980;28;20035;-95
2022/04/28 03:20:50;;;;;;;34.22;31.88;;;;;;;13.95;100.00;101149.03;4972628;28;20035;-95
2022/04/28 03:23:17;;;;;;;51.03;48.08;;;;;;;15.51;100.00;101133.53;4970745;28;20058;-94
2022/04/28 03:25:50;;;;;;;55.22;51.90;;;;;;;14.48;100.00;101145.88;4975886;28;20048;-95
2022/04/28 03:28:21;;;;;;;60.75;57.17;;;;;;;13.65;100.00;101168.34;4968730;28;20119;-94
2022/04/28 03:30:52;;;;;;;45.37;42.73;;;;;;;13.43;100.00;101159.00;4968786;28;20036;-94
2022/04/28 03:33:26;;;;;;;41.88;38.80;;;;;;;13.25;100.00;101155.22;4968256;28;20035;-94
2022/04/28 03:35:53;;;;;;;51.05;47.60;;;;;;;13.05;100.00;101143.78;4970673;28;20100;-95
2022/04/28 03:38:28;;;;;;;42.30;39.20;;;;;;;13.11;100.00;101136.81;4968333;28;20095;-93
2022/04/28 03:40:59;;;;;;;67.57;63.30;;;;;;;12.63;100.00;101171.81;4966358;28;20051;-94
2022/04/28 03:46:13;;;;;;;58.80;55.03;;;;;;;12.83;100.00;101194.72;5152376;23;20032;-95
2022/04/28 03:48:43;;;;;;;59.38;55.38;;;;;;;12.63;100.00;101195.81;5039122;28;20046;-94
2022/04/28 04:00:35;;;;;;;62.08;57.97;;;;;;;12.23;100.00;101187.84;5429127;23;20031;-95
2022/04/28 04:03:34;;;;;;;56.20;51.95;;;;;;;12.01;100.00;101179.22;4997521;28;20043;-96
2022/04/28 04:06:24;;;;;;;;;;;;;;;;;;;;;
2022/04/28 04:08:56;;;;;;;70.43;64.85;;;;;;;12.06;100.00;101203.41;4995845;28;20039;-95
2022/04/28 04:14:11;;;;;;;56.28;51.88;;;;;;;12.67;100.00;101234.31;5207503;23;20040;-95
2022/04/28 04:16:45;;;;;;;52.55;48.97;;;;;;;13.00;100.00;101251.06;5036326;28;20053;-95
2022/04/28 04:19:18;;;;;;;51.63;47.70;;;;;;;12.44;100.00;101240.09;5038799;28;20033;-94
2022/04/28 04:22:06;;;;;;;;;;;;;;;;;;;;;
2022/04/28 04:24:54;;;;;;;42.80;39.28;;;;;;;12.80;100.00;101240.47;5030093;28;20551;-95
2022/04/28 04:27:38;;;;;;;43.55;40.08;;;;;;;12.72;100.00;101259.34;5032440;28;20045;-95
2022/04/28 04:33:02;;;;;;;45.35;41.65;;;;;;;12.69;100.00;101259.75;5037764;28;20037;-94
2022/04/28 04:40:45;;;;;;;45.45;41.95;;;;;;;12.48;100.00;101257.28;5241336;23;20130;-95
2022/04/28 04:43:14;;;;;;;44.80;40.65;;;;;;;12.56;100.00;101249.09;4989954;28;20051;-94
2022/04/28 04:45:45;;;;;;;44.92;41.08;;;;;;;12.50;100.00;101249.94;4993211;28;20023;-95
2022/04/28 04:48:15;;;;;;;50.70;46.50;;;;;;;12.10;100.00;101247.22;4990312;28;20031;-93
2022/04/28 04:50:49;;;;;;;51.63;47.83;;;;;;;12.48;100.00;101244.78;5013928;23;20054;-95
2022/04/28 04:56:12;;;;;;;52.80;48.63;;;;;;;12.06;100.00;101253.97;5186278;23;20034;-95
2022/04/28 05:01:28;;;;;;;48.33;44.42;;;;;;;12.24;100.00;101266.72;5016617;28;20412;-95
2022/04/28 05:03:58;;;;;;;50.00;45.95;;;;;;;12.30;100.00;101265.91;5016851;28;20042;-94
2022/04/28 05:06:30;;;;;;;52.50;47.88;;;;;;;12.86;100.00;101264.63;5017556;28;20046;-95
2022/04/28 05:09:04;;;;;;;57.17;52.67;;;;;;;12.81;100.00;101275.94;5018633;28;20038;-95
2022/04/28 05:11:54;;;;;;;55.60;51.60;;;;;;;12.72;100.00;101285.16;5018185;28;20057;-96
2022/04/28 05:17:06;;;;;;;48.60;44.45;;;;;;;13.05;100.00;101285.94;5017755;28;20045;-95
2022/04/28 05:22:17;;;;;;;38.08;34.63;;;;;;;12.90;100.00;101303.19;5848583;23;20106;-95
2022/04/28 05:24:54;;;;;;;38.78;35.25;;;;;;;13.07;100.00;101315.06;5013888;28;20041;-94
2022/04/28 05:27:22;;;;;;;36.85;33.75;;;;;;;13.02;100.00;101310.34;5010921;28;20035;-94
2022/04/28 05:29:54;;;;;;;39.35;35.83;;;;;;;13.05;100.00;101333.13;5008518;28;20107;-95
2022/04/28 05:32:26;;;;;;;38.53;35.17;;;;;;;12.78;100.00;101338.47;5008568;28;20035;-95
2022/04/28 05:34:53;;;;;;;42.35;38.30;;;;;;;12.82;100.00;101339.69;5008013;28;20037;-94
2022/04/28 05:37:24;;;;;;;38.58;35.20;;;;;;;12.82;100.00;101346.88;5012484;28;20094;-94
2022/04/28 05:39:58;;;;;;;36.85;33.83;;;;;;;12.86;100.00;101357.94;5006306;28;20057;-95
2022/04/28 05:48:16;;;;;;;37.92;34.72;;;;;;;12.75;100.00;101348.72;5006244;28;20068;-94
2022/04/28 06:05:40;;;;;;;40.35;36.47;;;;;;;12.86;100.00;101371.28;5750967;23;20069;-93
2022/04/28 06:08:24;;;;;;;39.45;36.05;;;;;;;12.83;100.00;101360.00;5023326;28;20054;-95
2022/04/28 06:10:52;;;;;;;40.33;36.88;;;;;;;12.74;100.00;101368.41;5028442;28;20037;-94
2022/04/28 06:34:59;;;;;;;43.17;39.40;;;;;;;12.76;100.00;101299.72;4994247;28;20030;-94
2022/04/28 06:37:35;;;;;;;45.05;41.20;;;;;;;12.94;100.00;101320.41;4998588;28;20041;-94
2022/04/28 06:40:06;;;;;;;47.17;43.05;;;;;;;12.92;100.00;101341.97;5000964;28;20054;-95
2022/04/28 06:43:17;;;;;;;47.50;42.90;;;;;;;12.64;100.00;101342.16;4995190;28;20030;-95
2022/04/28 06:46:11;;;;;;;41.85;38.28;;;;;;;12.96;100.00;101353.03;5003899;28;20031;-94
2022/04/28 06:48:33;;;;;;;42.92;39.13;;;;;;;13.08;100.00;101367.38;5001400;28;20043;-94
2022/04/28 06:58:53;;;;;;;36.88;33.55;;;;;;;13.21;100.00;101374.53;5632844;23;20054;-93
2022/04/28 07:01:29;;;;;;;39.40;35.92;;;;;;;13.12;100.00;101376.59;5010610;28;20038;-92
2022/04/28 07:04:04;;;;;;;36.42;33.33;;;;;;;13.32;100.00;101386.47;5011144;28;20038;-94
2022/04/28 07:35:18;;;;;;;38.00;34.70;;;;;;;13.82;100.00;101411.59;5211774;23;20039;-93
2022/04/28 07:40:31;;;;;;;35.97;33.00;;;;;;;13.54;100.00;101409.19;5411588;23;20057;-95
2022/04/28 07:42:59;;;;;;;38.60;35.00;;;;;;;13.37;100.00;101416.81;5013673;28;20042;-94
2022/04/28 07:45:26;;;;;;;35.33;32.35;;;;;;;13.08;100.00;101407.38;5014283;28;20030;-93
2022/04/28 07:47:54;;;;;;;38.25;34.75;;;;;;;13.43;100.00;101423.19;5007258;28;20057;-95
2022/04/28 07:50:23;;;;;;;36.40;33.13;;;;;;;13.47;100.00;101419.09;5004214;28;20051;-93
2022/04/28 07:52:51;;;;;;;34.05;31.35;;;;;;;13.56;100.00;101417.84;5011087;28;20089;-92
2022/04/28 07:55:18;;;;;;;34.88;31.88;;;;;;;13.74;100.00;101419.84;5012112;28;20047;-92
2022/04/28 07:57:45;;;;;;;35.05;32.05;;;;;;;13.80;100.00;101413.66;5014790;28;20070;-94
2022/04/28 08:00:13;;;;;;;35.80;32.58;;;;;;;13.90;100.00;101421.22;5016554;28;20031;-94
2022/04/28 08:02:40;;;;;;;35.67;32.67;;;;;;;14.28;100.00;101425.78;5008766;28;20053;-93
2022/04/28 08:05:11;;;;;;;33.60;31.00;;;;;;;14.38;100.00;101426.16;5008322;28;20065;-94
2022/04/28 08:10:20;;;;;;;38.92;35.30;;;;;;;15.45;100.00;101429.69;5012500;28;20028;-95
2022/04/28 08:15:37;;;;;;;34.90;32.40;;;;;;;15.50;100.00;101418.34;5015776;28;20066;-93
2022/04/28 08:18:05;;;;;;;33.30;30.70;;;;;;;15.98;100.00;101426.50;5017726;28;20082;-93
2022/04/28 08:20:32;;;;;;;32.35;29.85;;;;;;;16.23;100.00;101418.34;5016896;28;20038;-93
2022/04/28 08:23:08;;;;;;;32.10;29.77;;;;;;;15.95;100.00;101416.22;5013156;28;20090;-94
2022/04/28 08:25:42;;;;;;;35.28;32.78;;;;;;;16.13;100.00;101425.28;5014327;28;20045;-94
2022/04/28 08:28:12;;;;;;;34.05;31.55;;;;;;;16.01;100.00;101430.59;5014246;28;20057;-92
2022/04/28 08:30:39;;;;;;;33.97;31.33;;;;;;;15.61;100.00;101430.16;5006318;28;20057;-93
2022/04/28 08:33:06;;;;;;;35.53;33.00;;;;;;;15.67;100.00;101431.94;5014922;28;20415;-93
2022/04/28 08:38:21;;;;;;;34.50;32.08;;;;;;;15.61;100.00;101428.31;5015659;28;20042;-92
2022/04/28 08:41:13;;;;;;;35.35;32.85;;;;;;;15.55;100.00;101443.41;5009287;28;20030;-95
2022/04/28 08:43:43;;;;;;;36.45;33.78;;;;;;;15.91;100.00;101422.25;5012653;28;20034;-94
2022/04/28 08:49:08;;;;;;;34.97;32.50;;;;;;;15.93;100.00;101430.88;5017699;28;20069;-96
2022/04/28 08:51:35;;;;;;;36.03;33.72;;;;;;;15.99;100.00;101432.66;5007732;28;20058;-94
2022/04/28 08:54:03;;;;;;;38.17;35.35;;;;;;;16.17;100.00;101431.84;5012454;28;20057;-94
2022/04/28 08:56:31;;;;;;;36.17;33.45;;;;;;;15.99;100.00;101435.34;5016880;28;20101;-90
2022/04/28 08:59:01;;;;;;;38.85;36.25;;;;;;;16.04;100.00;101432.81;5013549;28;20027;-94
2022/04/28 09:01:29;;;;;;;36.58;33.97;;;;;;;15.95;100.00;101443.03;5009029;28;20062;-94
2022/04/28 09:03:56;;;;;;;37.35;34.67;;;;;;;16.36;100.00;101438.78;4999036;28;20107;-94
2022/04/28 09:06:25;;;;;;;36.70;34.30;;;;;;;16.07;100.00;101434.22;4998526;28;20037;-94
2022/04/28 09:08:59;;;;;;;35.08;32.67;;;;;;;16.13;100.00;101436.84;4998261;28;20039;-94
2022/04/28 09:11:39;;;;;;;39.38;36.58;;;;;;;16.74;100.00;101434.16;4998294;28;20043;-94
2022/04/28 09:14:14;;;;;;;44.97;42.13;;;;;;;15.77;100.00;101432.31;4998661;28;20035;-94
2022/04/28 09:16:50;;;;;;;46.35;43.40;;;;;;;16.52;100.00;101432.00;4996354;28;20041;-93
2022/04/28 09:19:19;;;;;;;43.75;40.72;;;;;;;16.97;100.00;101436.09;4998443;28;20070;-93
2022/04/28 09:21:47;;;;;;;43.75;40.95;;;;;;;17.02;100.00;101428.97;4997135;28;20031;-94
2022/04/28 09:24:14;;;;;;;41.13;38.30;;;;;;;16.98;100.00;101435.06;4998544;28;20027;-93
2022/04/28 09:26:43;;;;;;;45.60;42.35;;;;;;;17.21;100.00;101436.94;4998431;28;20098;-94
2022/04/28 09:29:22;;;;;;;46.72;43.72;;;;;;;16.90;100.00;101428.16;4998308;28;20094;-95
2022/04/28 09:31:54;;;;;;;43.40;40.65;;;;;;;17.02;100.00;101430.84;4997544;28;20035;-94
2022/04/28 09:34:23;;;;;;;40.95;38.45;;;;;;;16.42;100.00;101437.88;4998364;28;20050;-93
2022/04/28 09:37:06;;;;;;;43.92;41.13;;;;;;;15.95;100.00;101434.16;4998951;28;20035;-94
2022/04/28 09:42:39;;;;;;;36.30;34.00;;;;;;;16.35;100.00;101442.53;4998604;28;20074;-94
2022/04/28 09:45:13;;;;;;;40.00;37.40;;;;;;;16.45;100.00;101444.66;4993056;28;20061;-93
2022/04/28 09:47:40;;;;;;;38.35;35.60;;;;;;;16.65;100.00;101441.72;4996860;28;20035;-93
2022/04/28 09:50:18;;;;;;;37.38;34.78;;;;;;;16.66;100.00;101444.16;4997428;28;20034;-95
2022/04/28 09:52:46;;;;;;;37.58;34.65;;;;;;;16.86;100.00;101440.41;4998100;28;20252;-94
2022/04/28 10:03:42;;;;;;;38.42;35.45;;;;;;;15.92;100.00;101456.88;5458905;23;20046;-95
2022/04/28 10:06:10;;;;;;;38.50;35.67;;;;;;;15.88;100.00;101461.00;5021238;28;20042;-93
2022/04/28 10:08:37;;;;;;;40.38;37.33;;;;;;;15.48;100.00;101461.38;5021339;28;20040;-95
2022/04/28 10:11:21;;;;;;;40.60;37.80;;;;;;;15.88;100.00;101461.00;5021397;28;20026;-94
2022/04/28 10:13:56;;;;;;;38.40;35.40;;;;;;;15.15;100.00;101455.50;5021584;28;20038;-96
2022/04/28 10:16:28;;;;;;;40.65;37.25;;;;;;;15.50;100.00;101475.38;5021309;28;20061;-96
2022/04/28 10:19:06;;;;;;;40.85;37.70;;;;;;;15.35;100.00;101470.34;5021720;28;20031;-95
2022/04/28 10:33:02;;;;;;;43.28;39.97;;;;;;;15.70;100.00;101472.56;5020772;28;20049;-94
2022/04/28 10:35:48;;;;;;;43.80;40.50;;;;;;;16.07;100.00;101472.56;5015275;28;20090;-95
2022/04/28 10:38:30;;;;;;;50.90;47.28;;;;;;;15.82;100.00;101466.44;5010469;28;20033;-95
2022/04/28 10:41:03;;;;;;;46.97;43.28;;;;;;;15.97;100.00;101480.28;5007209;28;20050;-95
2022/04/28 10:43:50;;;;;;;48.20;44.80;;;;;;;15.25;100.00;101488.78;5012413;28;20038;-95
2022/04/28 10:46:46;;;;;;;52.13;48.97;;;;;;;15.98;100.00;101490.78;5018162;28;20030;-95
2022/04/28 10:49:24;;;;;;;76.57;72.15;;;;;;;15.58;100.00;101490.31;5010750;28;20039;-96
2022/04/28 10:52:05;;;;;;;60.97;57.45;;;;;;;15.93;100.00;101490.63;5008825;28;20058;-95
2022/04/28 10:54:53;;;;;;;73.87;69.40;;;;;;;15.87;100.00;101490.72;5013541;28;20034;-95
2022/04/28 10:57:37;;;;;;;78.60;73.70;;;;;;;15.48;100.00;101496.19;5008535;28;20293;-96
2022/04/28 11:00:14;;;;;;;71.57;66.95;;;;;;;15.53;100.00;101500.91;5014817;28;20046;-95
2022/04/28 11:02:59;;;;;;;55.70;51.88;;;;;;;15.44;100.00;101494.19;5012414;28;20108;-95
2022/04/28 11:05:49;;;;;;;62.95;58.38;;;;;;;15.29;100.00;101500.69;5007842;28;20030;-95
2022/04/28 11:08:36;;;;;;;61.83;57.50;;;;;;;15.35;100.00;101499.00;5013060;28;20038;-95
2022/04/28 11:11:21;;;;;;;72.18;67.22;;;;;;;15.39;100.00;101497.50;5009989;28;20054;-94
2022/04/28 11:13:59;;;;;;;66.85;62.33;;;;;;;15.53;100.00;101493.69;5012196;28;20031;-95
2022/04/28 11:16:32;;;;;;;63.65;59.20;;;;;;;15.51;100.00;101494.94;5007822;28;20074;-96
2022/04/28 11:19:04;;;;;;;66.70;62.30;;;;;;;15.23;100.00;101490.03;5011133;28;20090;-94
2022/04/28 11:21:35;;;;;;;64.20;59.90;;;;;;;15.29;100.00;101481.13;5005457;28;20030;-94
2022/04/28 11:24:06;;;;;;;58.70;54.67;;;;;;;15.15;100.00;101490.28;5012643;28;20030;-95
2022/04/28 11:26:38;;;;;;;62.85;58.10;;;;;;;15.05;100.00;101498.81;5013511;28;20042;-95
2022/04/28 11:29:07;;;;;;;;;;;;;;;14.85;100.00;101506.94;5012294;28;20043;-95
2022/04/28 11:31:50;;;;;;;59.30;55.03;;;;;;;15.11;100.00;101505.97;5012204;28;19905;-95
2022/04/28 11:34:22;;;;;;;52.28;48.08;;;;;;;15.00;100.00;101507.47;5015685;28;20098;-96
2022/04/28 11:36:53;;;;;;;44.15;40.45;;;;;;;15.33;100.00;101506.41;5017232;28;20033;-95
2022/04/28 11:39:25;;;;;;;52.00;48.08;;;;;;;14.89;100.00;101500.97;5005687;28;20030;-95
2022/04/28 11:42:00;;;;;;;55.13;50.75;;;;;;;14.56;100.00;101509.16;5008545;28;20038;-95
2022/04/28 11:44:29;;;;;;;59.08;54.80;;;;;;;14.61;100.00;101512.03;5015469;28;20102;-96
2022/04/28 11:47:02;;;;;;;58.65;54.25;;;;;;;14.71;100.00;101505.41;5014544;28;20026;-95
2022/04/28 11:49:40;;;;;;;52.05;47.95;;;;;;;14.74;100.00;101504.97;5013240;28;20158;-95
2022/04/28 11:52:21;;;;;;;53.75;49.53;;;;;;;14.53;100.00;101512.25;5016322;28;20030;-95
2022/04/28 11:54:55;;;;;;;50.50;46.17;;;;;;;14.74;100.00;101515.66;5020893;28;20039;-96
2022/04/28 11:57:23;;;;;;;50.75;46.40;;;;;;;14.96;100.00;101522.31;5008396;28;20037;-95
2022/04/28 11:59:50;;;;;;;45.95;42.10;;;;;;;15.04;100.00;101497.16;5018699;28;20062;-95
2022/04/28 12:02:28;;;;;;;47.88;43.83;;;;;;;15.32;100.00;101483.38;5009514;28;20094;-96
2022/04/28 12:05:00;;;;;;;49.30;45.35;;;;;;;14.85;100.00;101493.56;5013948;28;20091;-93
2022/04/28 12:07:29;;;;;;;51.33;47.47;;;;;;;15.19;100.00;101492.31;5015631;28;20034;-95
2022/04/28 12:15:41;;;;;;;49.67;45.45;;;;;;;15.41;100.00;101490.09;5017446;28;20061;-94
2022/04/28 12:21:02;;;;;;;51.47;47.08;;;;;;;15.77;100.00;101486.69;5007104;28;20030;-94
2022/04/28 12:23:34;;;;;;;46.33;42.70;;;;;;;15.56;100.00;101493.25;5008839;28;20030;-96
2022/04/28 12:26:08;;;;;;;46.42;42.80;;;;;;;15.24;100.00;101495.16;5014547;28;20098;-95
2022/04/28 12:28:42;;;;;;;49.45;45.45;;;;;;;15.26;100.00;101495.75;5014246;28;20054;-95
2022/04/28 12:31:15;;;;;;;50.85;46.72;;;;;;;15.47;100.00;101489.22;5009782;28;20057;-93
2022/04/28 12:33:51;;;;;;;46.83;43.08;;;;;;;15.21;100.00;101490.22;5002914;28;20055;-93
2022/04/28 12:36:19;;;;;;;51.63;47.53;;;;;;;14.99;100.00;101488.97;5025897;28;20041;-92
2022/04/28 12:38:49;;;;;;;45.83;42.42;;;;;;;15.03;100.00;101492.84;5014160;28;20061;-93
2022/04/28 12:41:17;;;;;;;46.92;43.35;;;;;;;14.84;100.00;101487.41;5013288;28;20042;-95
2022/04/28 12:43:49;;;;;;;42.72;39.40;;;;;;;14.82;100.00;101497.50;5006798;28;20040;-94
2022/04/28 12:46:25;;;;;;;44.42;41.22;;;;;;;15.06;100.00;101497.75;5004567;28;20027;-94
2022/04/28 12:49:03;;;;;;;40.65;37.65;;;;;;;14.72;100.00;101494.47;5008991;28;20041;-93
2022/04/28 12:51:42;;;;;;;38.63;35.85;;;;;;;14.75;100.00;101488.69;5007245;28;20070;-93
2022/04/28 12:54:15;;;;;;;41.30;38.30;;;;;;;14.88;100.00;101496.63;5005570;28;20055;-93
2022/04/28 12:57:05;;;;;;;38.15;35.20;;;;;;;14.87;100.00;101497.66;5003548;28;20026;-94
2022/04/28 12:59:32;;;;;;;35.75;33.10;;;;;;;14.38;100.00;101495.66;5015554;28;20046;-93
2022/04/28 13:02:00;;;;;;;34.85;32.35;;;;;;;14.58;100.00;101504.44;5004899;28;20035;-93
2022/04/28 13:04:29;;;;;;;33.55;30.83;;;;;;;14.40;100.00;101494.41;5017036;28;20054;-93
2022/04/28 13:07:38;;;;;;;36.22;33.90;;;;;;;14.47;100.00;101494.38;5010287;28;20046;-93
2022/04/28 13:10:15;;;;;;;36.45;33.80;;;;;;;14.37;100.00;101491.31;5003533;28;20058;-93
2022/04/28 13:12:43;;;;;;;37.72;34.30;;;;;;;14.40;100.00;101488.22;5009002;28;20754;-92
2022/04/28 13:15:23;;;;;;;36.80;34.00;;;;;;;14.39;100.00;101483.91;5000513;28;20054;-92
2022/04/28 13:17:50;;;;;;;36.65;33.63;;;;;;;13.99;100.00;101494.75;5012331;28;20050;-93
2022/04/28 13:20:26;;;;;;;36.55;33.75;;;;;;;14.08;100.00;101500.69;5000860;28;20047;-93
2022/04/28 13:22:53;;;;;;;35.22;32.33;;;;;;;14.13;100.00;101503.53;5004473;28;20050;-93
2022/04/28 13:25:24;;;;;;;35.40;32.47;;;;;;;14.39;100.00;101507.97;5006998;28;20039;-95
2022/04/28 13:27:51;;;;;;;37.15;34.25;;;;;;;14.23;100.00;101506.59;5007143;28;20136;-92
2022/04/28 13:30:19;;;;;;;38.60;35.70;;;;;;;14.02;100.00;101513.03;5006609;28;20050;-92
2022/04/28 13:32:47;;;;;;;39.20;36.20;;;;;;;14.23;100.00;101513.78;5018964;28;20043;-93
2022/04/28 13:35:15;;;;;;;37.45;34.22;;;;;;;14.21;100.00;101509.47;5009849;28;20074;-93
2022/04/28 13:37:53;;;;;;;36.20;33.10;;;;;;;14.04;100.00;101515.47;5008794;28;20030;-93
2022/04/28 13:40:38;;;;;;;36.22;33.28;;;;;;;14.06;100.00;101497.38;5012989;28;20053;-93
2022/04/28 13:43:05;;;;;;;35.83;33.03;;;;;;;14.56;100.00;101500.31;5004999;28;20115;-94
2022/04/28 13:45:38;;;;;;;35.70;32.80;;;;;;;14.39;100.00;101511.44;5009913;28;20035;-94
2022/04/28 13:48:12;;;;;;;35.47;32.67;;;;;;;13.92;100.00;101508.13;5019309;28;20118;-93
2022/04/28 13:50:40;;;;;;;34.53;31.63;;;;;;;14.53;100.00;101512.25;5007591;28;20049;-94
2022/04/28 13:53:07;;;;;;;34.28;31.15;;;;;;;14.19;100.00;101513.38;5016152;28;20052;-93
2022/04/28 13:55:48;;;;;;;35.10;32.17;;;;;;;14.74;100.00;101507.63;5016935;28;20042;-93
2022/04/28 13:58:22;;;;;;;35.72;32.33;;;;;;;14.62;100.00;101496.81;5007579;28;20583;-93
2022/04/28 14:00:51;;;;;;;38.42;35.53;;;;;;;14.63;100.00;101501.91;5016994;28;20030;-94
2022/04/28 14:03:20;;;;;;;36.55;33.28;;;;;;;15.01;100.00;101513.66;5008655;28;20030;-93
2022/04/28 14:05:48;;;;;;;38.20;34.70;;;;;;;14.94;100.00;101499.47;5015592;28;20034;-93
2022/04/28 14:08:18;;;;;;;39.53;36.10;;;;;;;14.89;100.00;101494.78;5017994;28;20047;-93
2022/04/28 14:10:48;;;;;;;34.58;31.73;;;;;;;14.99;100.00;101489.78;5012396;28;20120;-93
2022/04/28 14:16:27;;;;;;;35.65;32.80;;;;;;;14.82;100.00;101504.69;5022619;28;20046;-93
2022/04/28 14:21:54;;;;;;;35.85;32.97;;;;;;;14.93;100.00;101492.50;5020133;28;20038;-93
2022/04/28 14:24:24;;;;;;;33.95;31.10;;;;;;;14.86;100.00;101492.56;5021018;28;20054;-93